createdAt,value
2022-11-27T00:00:46.796Z,102105.39
2022-11-27T00:03:13.354Z,102098.45
2022-11-27T00:05:39.951Z,102094.38
2022-11-27T00:08:06.504Z,102094.97
2022-11-27T00:10:32.964Z,102094.00
2022-11-27T00:12:59.404Z,102093.73
2022-11-27T00:15:25.816Z,102095.30
2022-11-27T00:17:52.220Z,102093.29
2022-11-27T00:20:18.701Z,102102.02
2022-11-27T00:22:45.113Z,102098.28
2022-11-27T00:25:11.527Z,102095.11
2022-11-27T00:27:37.965Z,102089.27
2022-11-27T00:30:05.199Z,102085.53
2022-11-27T00:32:31.606Z,102079.92
2022-11-27T00:34:58.106Z,102074.95
2022-11-27T00:37:24.655Z,102067.01
2022-11-27T00:39:51.136Z,102062.70
2022-11-27T00:42:17.718Z,102057.57
2022-11-27T00:44:44.140Z,102050.14
2022-11-27T00:47:10.658Z,102050.22
2022-11-27T00:49:37.225Z,102050.60
2022-11-27T00:52:03.878Z,102049.79
2022-11-27T00:54:30.372Z,102052.77
2022-11-27T00:56:56.789Z,102043.41
2022-11-27T00:59:23.214Z,102046.29
2022-11-27T01:01:49.771Z,102042.12
2022-11-27T01:04:16.589Z,102044.21
2022-11-27T01:06:44.299Z,102042.45
2022-11-27T01:09:12.666Z,102042.89
2022-11-27T01:11:39.894Z,102036.14
2022-11-27T01:14:11.950Z,102038.61
2022-11-27T01:16:42.590Z,102039.03
2022-11-27T01:19:10.750Z,102035.43
2022-11-27T01:21:37.277Z,102036.00
2022-11-27T01:24:05.255Z,102032.60
2022-11-27T01:26:32.469Z,102029.19
2022-11-27T01:28:59.678Z,102024.72
2022-11-27T01:31:29.476Z,102018.52
2022-11-27T01:33:58.870Z,102019.50
2022-11-27T01:36:26.326Z,102018.84
2022-11-27T01:38:53.224Z,102017.13
2022-11-27T01:41:23.336Z,102013.67
2022-11-27T01:43:51.280Z,102006.31
2022-11-27T01:46:33.013Z,102005.05
2022-11-27T01:49:11.460Z,102008.36
2022-11-27T01:51:49.470Z,102013.73
2022-11-27T01:54:18.595Z,102009.91
2022-11-27T01:56:48.615Z,102011.52
2022-11-27T01:59:17.358Z,102002.45
2022-11-27T02:01:43.882Z,102002.05
2022-11-27T02:04:10.603Z,102001.08
2022-11-27T02:06:37.060Z,101999.92
2022-11-27T02:09:03.787Z,102002.66
2022-11-27T02:11:58.207Z,102000.63
2022-11-27T02:14:33.604Z,101996.91
2022-11-27T02:17:13.881Z,101995.63
2022-11-27T02:20:22.985Z,101996.30
2022-11-27T02:23:22.158Z,101999.54
2022-11-27T02:25:57.760Z,101993.88
2022-11-27T02:28:53.790Z,101988.25
2022-11-27T02:31:33.474Z,101984.57
2022-11-27T02:34:25.299Z,101979.26
2022-11-27T02:37:21.252Z,101976.57
2022-11-27T02:40:11.900Z,101978.56
2022-11-27T02:42:59.395Z,101976.30
2022-11-27T02:45:35.347Z,101973.08
2022-11-27T02:48:03.326Z,101966.11
2022-11-27T02:50:32.089Z,101959.25
2022-11-27T02:53:03.911Z,101944.85
2022-11-27T02:55:36.279Z,101938.61
2022-11-27T02:58:09.160Z,101938.30
2022-11-27T03:00:37.529Z,101942.80
2022-11-27T03:03:09.578Z,101946.09
2022-11-27T03:05:40.820Z,101949.30
2022-11-27T03:08:13.979Z,101946.42
2022-11-27T03:11:03.124Z,101943.18
2022-11-27T03:13:35.902Z,101935.95
2022-11-27T03:16:17.292Z,101933.95
2022-11-27T03:19:04.615Z,101933.16
2022-11-27T03:21:39.582Z,101928.75
2022-11-27T03:24:08.186Z,101922.56
2022-11-27T03:26:35.806Z,101920.11
2022-11-27T03:29:04.986Z,101914.30
2022-11-27T03:31:31.853Z,101907.92
2022-11-27T03:33:58.581Z,101908.88
2022-11-27T03:36:25.102Z,101911.66
2022-11-27T03:38:53.979Z,101913.69
2022-11-27T03:41:32.442Z,101919.02
2022-11-27T03:44:14.130Z,101923.54
2022-11-27T03:46:54.645Z,101925.61
2022-11-27T03:49:24.020Z,101924.59
2022-11-27T03:52:19.701Z,101926.55
2022-11-27T03:55:15.577Z,101927.36
2022-11-27T03:57:41.951Z,101925.30
2022-11-27T04:00:11.215Z,101934.15
2022-11-27T04:02:50.638Z,101934.16
2022-11-27T04:05:17.589Z,101936.80
2022-11-27T04:07:44.217Z,101941.79
2022-11-27T04:10:11.914Z,101942.06
2022-11-27T04:12:38.583Z,101942.07
2022-11-27T04:15:06.142Z,101934.68
2022-11-27T04:17:32.714Z,101934.11
2022-11-27T04:19:59.158Z,101924.52
2022-11-27T04:22:25.651Z,101923.20
2022-11-27T04:24:52.117Z,101921.64
2022-11-27T04:27:18.709Z,101916.03
2022-11-27T04:29:45.114Z,101907.02
2022-11-27T04:32:11.509Z,101907.48
2022-11-27T04:34:38.078Z,101906.25
2022-11-27T04:37:04.709Z,101905.34
2022-11-27T04:39:31.118Z,101907.89
2022-11-27T04:41:57.573Z,101909.59
2022-11-27T04:44:24.033Z,101910.03
2022-11-27T04:46:50.576Z,101907.80
2022-11-27T04:49:17.341Z,101902.02
2022-11-27T04:51:43.880Z,101900.28
2022-11-27T04:54:10.342Z,101897.88
2022-11-27T04:56:36.777Z,101898.41
2022-11-27T04:59:04.486Z,101900.80
2022-11-27T05:01:31.495Z,101898.63
2022-11-27T05:03:58.002Z,101894.17
2022-11-27T05:06:24.567Z,101891.84
2022-11-27T05:08:51.102Z,101878.16
2022-11-27T05:11:18.126Z,101873.64
2022-11-27T05:13:44.888Z,101868.95
2022-11-27T05:16:11.567Z,101872.09
2022-11-27T05:18:38.110Z,101875.67
2022-11-27T05:21:07.924Z,101871.73
2022-11-27T05:23:35.648Z,101870.81
2022-11-27T05:26:03.517Z,101867.98
2022-11-27T05:28:30.075Z,101864.95
2022-11-27T05:30:56.512Z,101859.84
2022-11-27T05:33:23.040Z,101853.81
2022-11-27T05:35:49.687Z,101849.48
2022-11-27T05:38:16.047Z,101843.69
2022-11-27T05:40:42.430Z,101834.34
2022-11-27T05:43:08.782Z,101834.68
2022-11-27T05:45:37.285Z,101830.27
2022-11-27T05:48:03.824Z,101823.84
2022-11-27T05:50:30.392Z,101822.13
2022-11-27T05:52:56.833Z,101818.64
2022-11-27T05:55:23.260Z,101820.40
2022-11-27T05:57:49.703Z,101822.23
2022-11-27T06:00:16.550Z,101820.34
2022-11-27T06:02:43.025Z,101819.23
2022-11-27T06:05:09.620Z,101815.82
2022-11-27T06:07:36.049Z,101811.11
2022-11-27T06:10:02.502Z,101806.70
2022-11-27T06:12:31.633Z,101802.92
2022-11-27T06:14:58.270Z,101802.66
2022-11-27T06:17:24.654Z,101802.86
2022-11-27T06:19:51.636Z,101805.13
2022-11-27T06:22:18.086Z,101806.62
2022-11-27T06:24:44.463Z,101809.20
2022-11-27T06:27:10.878Z,101807.44
2022-11-27T06:29:37.902Z,101808.73
2022-11-27T06:32:05.171Z,101805.86
2022-11-27T06:34:31.708Z,101807.40
2022-11-27T06:36:58.181Z,101806.13
2022-11-27T06:39:25.928Z,101806.66
2022-11-27T06:41:52.326Z,101806.17
2022-11-27T06:44:18.711Z,101809.25
2022-11-27T06:46:45.180Z,101804.99
2022-11-27T06:49:11.533Z,101798.70
2022-11-27T06:51:38.062Z,101797.77
2022-11-27T06:54:04.601Z,101794.42
2022-11-27T06:56:32.239Z,101795.23
2022-11-27T06:59:01.093Z,101795.08
2022-11-27T07:01:29.381Z,101798.23
2022-11-27T07:03:56.782Z,101805.88
2022-11-27T07:06:25.386Z,101803.95
2022-11-27T07:08:52.313Z,101797.86
2022-11-27T07:11:22.148Z,101792.80
2022-11-27T07:13:50.199Z,101791.41
2022-11-27T07:16:17.976Z,101788.59
2022-11-27T07:18:49.116Z,101782.98
2022-11-27T07:21:16.098Z,101781.75
2022-11-27T07:23:43.209Z,101780.69
2022-11-27T07:26:15.414Z,101783.00
2022-11-27T07:28:45.799Z,101778.60
2022-11-27T07:31:14.501Z,101778.64
2022-11-27T07:33:41.045Z,101780.16
2022-11-27T07:36:17.242Z,101781.64
2022-11-27T07:38:44.506Z,101782.06
2022-11-27T07:41:11.496Z,101778.32
2022-11-27T07:43:38.256Z,101781.50
2022-11-27T07:46:06.617Z,101775.47
2022-11-27T07:48:33.232Z,101772.60
2022-11-27T07:51:00.067Z,101772.50
2022-11-27T07:53:26.519Z,101773.68
2022-11-27T07:55:52.903Z,101771.39
2022-11-27T07:58:19.295Z,101764.40
2022-11-27T08:00:45.830Z,101762.64
2022-11-27T08:03:12.261Z,101759.77
2022-11-27T08:05:38.679Z,101762.81
2022-11-27T08:08:05.207Z,101761.33
2022-11-27T08:10:35.448Z,101757.11
2022-11-27T08:13:01.843Z,101753.56
2022-11-27T08:15:28.264Z,101759.55
2022-11-27T08:17:54.793Z,101762.80
2022-11-27T08:20:21.509Z,101766.31
2022-11-27T08:22:47.884Z,101764.52
2022-11-27T08:25:14.456Z,101764.55
2022-11-27T08:27:40.993Z,101767.75
2022-11-27T08:30:08.289Z,101765.77
2022-11-27T08:32:34.801Z,101767.25
2022-11-27T08:35:02.522Z,101767.38
2022-11-27T08:37:28.967Z,101775.96
2022-11-27T08:39:55.457Z,101779.14
2022-11-27T08:42:21.983Z,101770.44
2022-11-27T08:44:48.358Z,101768.95
2022-11-27T08:47:16.835Z,101760.87
2022-11-27T08:49:46.240Z,101753.03
2022-11-27T08:52:12.923Z,101749.80
2022-11-27T08:54:39.586Z,101743.73
2022-11-27T08:57:06.306Z,101745.47
2022-11-27T08:59:32.692Z,101745.88
2022-11-27T09:01:59.137Z,101742.73
2022-11-27T09:04:25.586Z,101740.98
2022-11-27T09:06:56.767Z,101732.52
2022-11-27T09:09:24.893Z,101728.79
2022-11-27T09:11:51.358Z,101727.92
2022-11-27T09:14:17.788Z,101724.80
2022-11-27T09:16:44.296Z,101720.66
2022-11-27T09:19:10.834Z,101717.08
2022-11-27T09:21:38.799Z,101709.93
2022-11-27T09:24:05.599Z,101705.37
2022-11-27T09:26:32.086Z,101706.34
2022-11-27T09:28:59.943Z,101695.42
2022-11-27T09:31:26.679Z,101693.14
2022-11-27T09:33:53.734Z,101688.05
2022-11-27T09:36:23.166Z,101688.48
2022-11-27T09:38:50.277Z,101690.17
2022-11-27T09:41:27.574Z,101688.11
2022-11-27T09:43:58.084Z,101689.18
2022-11-27T09:46:31.215Z,101686.30
2022-11-27T09:49:02.306Z,101689.55
2022-11-27T09:51:34.416Z,101688.86
2022-11-27T09:54:15.561Z,101675.30
2022-11-27T09:56:45.624Z,101669.95
2022-11-27T09:59:18.031Z,101671.46
2022-11-27T10:01:49.386Z,101673.21
2022-11-27T10:04:19.652Z,101670.98
2022-11-27T10:07:43.315Z,101670.79
2022-11-27T10:10:09.948Z,101669.04
2022-11-27T10:13:02.392Z,101668.65
2022-11-27T10:15:46.841Z,101668.37
2022-11-27T10:18:25.110Z,101670.08
2022-11-27T10:20:58.239Z,101663.23
2022-11-27T10:23:33.295Z,101653.56
2022-11-27T10:26:12.381Z,101640.62
2022-11-27T10:28:45.277Z,101629.55
2022-11-27T10:31:24.863Z,101620.89
2022-11-27T10:33:55.888Z,101619.99
2022-11-27T10:36:28.902Z,101619.58
2022-11-27T10:38:58.115Z,101619.19
2022-11-27T10:44:34.605Z,101602.36
2022-11-27T10:47:10.986Z,101604.76
2022-11-27T10:49:40.663Z,101615.49
2022-11-27T10:52:15.734Z,101616.59
2022-11-27T10:54:43.859Z,101610.75
2022-11-27T10:57:16.372Z,101612.27
2022-11-27T11:00:00.849Z,101609.34
2022-11-27T11:02:39.236Z,101603.00
2022-11-27T11:08:16.849Z,101602.24
2022-11-27T11:10:49.958Z,101599.59
2022-11-27T11:13:18.423Z,101594.02
2022-11-27T11:15:51.818Z,101586.20
2022-11-27T11:18:33.166Z,101586.42
2022-11-27T11:21:07.035Z,101589.71
2022-11-27T11:23:40.708Z,101592.54
2022-11-27T11:26:33.417Z,101594.16
2022-11-27T11:29:04.221Z,101585.94
2022-11-27T11:31:38.437Z,101583.27
2022-11-27T11:34:17.017Z,101582.51
2022-11-27T11:36:58.010Z,101578.87
2022-11-27T11:39:28.104Z,101577.60
2022-11-27T11:41:54.503Z,101574.14
2022-11-27T11:44:32.585Z,101570.44
2022-11-27T11:46:58.967Z,101560.52
2022-11-27T11:49:27.627Z,101554.90
2022-11-27T11:52:07.404Z,101553.98
2022-11-27T11:54:51.723Z,101550.86
2022-11-27T11:57:50.557Z,101550.20
2022-11-27T12:00:28.076Z,101544.77
2022-11-27T12:03:12.155Z,101538.92
2022-11-27T12:06:00.990Z,101536.09
2022-11-27T12:08:42.983Z,101533.37
2022-11-27T12:11:19.816Z,101528.89
2022-11-27T12:14:06.439Z,101523.44
2022-11-27T12:16:40.225Z,101519.48
2022-11-27T12:19:15.726Z,101515.31
2022-11-27T12:22:04.934Z,101506.57
2022-11-27T12:24:45.000Z,101506.52
2022-11-27T12:27:29.064Z,101507.88
2022-11-27T12:30:19.873Z,101500.88
2022-11-27T12:32:55.639Z,101496.55
2022-11-27T12:35:54.463Z,101492.78
2022-11-27T12:38:32.690Z,101486.67
2022-11-27T12:41:41.333Z,101483.36
2022-11-27T12:44:26.859Z,101482.36
2022-11-27T12:46:59.699Z,101480.14
2022-11-27T12:49:34.004Z,101476.95
2022-11-27T12:52:14.734Z,101472.33
2022-11-27T12:54:47.160Z,101464.19
2022-11-27T12:57:18.813Z,101460.83
2022-11-27T12:59:56.646Z,101454.94
2022-11-27T13:02:44.104Z,101453.58
2022-11-27T13:05:17.706Z,101450.66
2022-11-27T13:08:01.681Z,101444.13
2022-11-27T13:10:38.167Z,101443.09
2022-11-27T13:13:20.512Z,101447.21
2022-11-27T13:16:22.086Z,101446.39
2022-11-27T13:19:15.185Z,101441.08
2022-11-27T13:21:42.983Z,101439.84
2022-11-27T13:24:13.197Z,101437.11
2022-11-27T13:26:53.852Z,101434.61
2022-11-27T13:30:00.973Z,101432.69
2022-11-27T13:32:31.237Z,101433.31
2022-11-27T13:35:02.230Z,101426.14
2022-11-27T13:37:36.697Z,101423.77
2022-11-27T13:40:36.623Z,101418.41
2022-11-27T13:43:20.260Z,101416.23
2022-11-27T13:45:47.076Z,101414.17
2022-11-27T13:48:32.295Z,101408.65
2022-11-27T13:50:59.584Z,101399.88
2022-11-27T13:53:37.512Z,101400.30
2022-11-27T13:56:04.564Z,101396.21
2022-11-27T13:58:36.937Z,101391.66
2022-11-27T14:01:17.711Z,101389.06
2022-11-27T14:03:44.744Z,101385.07
2022-11-27T14:06:18.429Z,101380.02
2022-11-27T14:08:55.645Z,101379.34
2022-11-27T14:11:48.185Z,101379.61
2022-11-27T14:14:22.040Z,101375.90
2022-11-27T14:17:03.421Z,101372.77
2022-11-27T14:19:36.381Z,101370.68
2022-11-27T14:22:48.450Z,101365.48
2022-11-27T14:25:29.332Z,101365.48
2022-11-27T14:28:27.768Z,101363.23
2022-11-27T14:30:57.454Z,101365.73
2022-11-27T14:33:59.581Z,101363.11
2022-11-27T14:36:31.708Z,101355.70
2022-11-27T14:38:59.139Z,101352.95
2022-11-27T14:41:27.317Z,101351.95
2022-11-27T14:44:01.308Z,101347.74
2022-11-27T14:46:28.779Z,101342.52
2022-11-27T14:48:59.084Z,101339.14
2022-11-27T14:51:28.811Z,101330.00
2022-11-27T14:54:04.574Z,101325.83
2022-11-27T14:56:36.389Z,101320.92
2022-11-27T14:59:04.105Z,101311.84
2022-11-27T15:01:32.402Z,101310.30
2022-11-27T15:04:01.241Z,101311.20
2022-11-27T15:06:33.694Z,101308.83
2022-11-27T15:09:29.574Z,101303.16
2022-11-27T15:11:56.927Z,101299.30
2022-11-27T15:14:25.722Z,101293.57
2022-11-27T15:16:53.727Z,101289.61
2022-11-27T15:19:34.040Z,101284.55
2022-11-27T15:22:01.503Z,101281.27
2022-11-27T15:24:32.874Z,101282.98
2022-11-27T15:27:14.540Z,101280.42
2022-11-27T15:29:58.737Z,101274.40
2022-11-27T15:32:27.583Z,101272.30
2022-11-27T15:34:54.671Z,101263.77
2022-11-27T15:37:27.250Z,101266.93
2022-11-27T15:39:57.773Z,101263.64
2022-11-27T15:42:26.221Z,101267.06
2022-11-27T15:44:54.676Z,101266.84
2022-11-27T15:47:28.932Z,101266.75
2022-11-27T15:49:56.007Z,101270.63
2022-11-27T15:52:22.939Z,101268.52
2022-11-27T15:54:51.170Z,101263.09
2022-11-27T15:57:17.908Z,101267.82
2022-11-27T15:59:44.286Z,101265.21
2022-11-27T16:02:17.294Z,101260.27
2022-11-27T16:04:44.348Z,101256.04
2022-11-27T16:07:10.871Z,101251.04
2022-11-27T16:09:39.548Z,101252.65
2022-11-27T16:12:06.150Z,101249.89
2022-11-27T16:14:32.564Z,101250.08
2022-11-27T16:17:00.434Z,101244.94
2022-11-27T16:19:27.017Z,101237.80
2022-11-27T16:21:53.382Z,101236.42
2022-11-27T16:24:19.819Z,101232.30
2022-11-27T16:26:46.198Z,101231.91
2022-11-27T16:29:12.687Z,101230.91
2022-11-27T16:31:39.608Z,101232.45
2022-11-27T16:34:06.567Z,101230.22
2022-11-27T16:36:33.035Z,101235.05
2022-11-27T16:38:59.477Z,101228.30
2022-11-27T16:41:26.293Z,101232.61
2022-11-27T16:43:55.753Z,101222.39
2022-11-27T16:46:28.230Z,101221.26
2022-11-27T16:48:56.102Z,101218.48
2022-11-27T16:51:25.316Z,101214.29
2022-11-27T16:53:54.335Z,101210.95
2022-11-27T16:56:23.961Z,101209.03
2022-11-27T16:58:51.376Z,101201.87
2022-11-27T17:01:21.155Z,101198.58
2022-11-27T17:03:47.984Z,101195.88
2022-11-27T17:06:20.425Z,101194.85
2022-11-27T17:08:47.419Z,101191.70
2022-11-27T17:11:20.945Z,101187.24
2022-11-27T17:13:48.709Z,101177.27
2022-11-27T17:16:15.678Z,101175.36
2022-11-27T17:18:43.133Z,101171.14
2022-11-27T17:21:18.463Z,101168.98
2022-11-27T17:23:46.821Z,101166.76
2022-11-27T17:26:16.175Z,101161.75
2022-11-27T17:28:42.678Z,101164.33
2022-11-27T17:31:15.551Z,101162.66
2022-11-27T17:33:42.425Z,101161.42
2022-11-27T17:36:09.401Z,101164.27
2022-11-27T17:38:35.945Z,101162.67
2022-11-27T17:41:07.937Z,101159.66
2022-11-27T17:43:35.814Z,101155.74
2022-11-27T17:46:06.235Z,101151.99
2022-11-27T17:48:33.648Z,101150.10
2022-11-27T17:51:00.583Z,101153.23
2022-11-27T17:53:26.991Z,101152.41
2022-11-27T17:55:55.389Z,101150.94
2022-11-27T17:58:21.947Z,101146.64
2022-11-27T18:00:48.641Z,101136.84
2022-11-27T18:03:15.211Z,101132.45
2022-11-27T18:05:41.689Z,101130.34
2022-11-27T18:08:08.095Z,101121.45
2022-11-27T18:10:34.735Z,101110.39
2022-11-27T18:13:01.302Z,101110.34
2022-11-27T18:15:27.751Z,101106.79
2022-11-27T18:17:54.429Z,101098.02
2022-11-27T18:20:21.126Z,101095.66
2022-11-27T18:22:47.665Z,101091.69
2022-11-27T18:25:14.190Z,101089.05
2022-11-27T18:27:41.287Z,101083.64
2022-11-27T18:30:08.747Z,101082.92
2022-11-27T18:32:39.428Z,101081.54
2022-11-27T18:35:06.633Z,101077.48
2022-11-27T18:37:34.915Z,101076.73
2022-11-27T18:40:01.757Z,101074.73
2022-11-27T18:42:31.425Z,101070.97
2022-11-27T18:44:58.072Z,101074.16
2022-11-27T18:47:24.676Z,101070.08
2022-11-27T18:49:51.239Z,101069.27
2022-11-27T18:52:17.779Z,101062.75
2022-11-27T18:54:44.307Z,101058.27
2022-11-27T18:57:11.189Z,101059.17
2022-11-27T18:59:38.401Z,101057.20
2022-11-27T19:02:05.250Z,101061.34
2022-11-27T19:04:35.399Z,101059.54
2022-11-27T19:07:01.764Z,101058.82
2022-11-27T19:09:28.498Z,101057.00
2022-11-27T19:11:54.931Z,101052.20
2022-11-27T19:14:21.410Z,101053.61
2022-11-27T19:16:48.451Z,101051.16
2022-11-27T19:22:07.865Z,101046.03
2022-11-27T19:24:34.390Z,101037.38
2022-11-27T19:27:00.732Z,101032.88
2022-11-27T19:29:27.352Z,101033.04
2022-11-27T19:31:56.181Z,101029.62
2022-11-27T19:34:22.788Z,101029.14
2022-11-27T19:36:49.235Z,101034.36
2022-11-27T19:39:16.010Z,101027.34
2022-11-27T19:41:43.347Z,101025.41
2022-11-27T19:44:11.515Z,101029.15
2022-11-27T19:46:38.331Z,101027.52
2022-11-27T19:49:12.657Z,101030.89
2022-11-27T19:51:39.429Z,101029.94
2022-11-27T19:54:10.198Z,101024.27
2022-11-27T19:56:38.697Z,101016.77
2022-11-27T19:59:06.287Z,101014.16
2022-11-27T20:01:33.006Z,101012.58
2022-11-27T20:04:01.112Z,101008.59
2022-11-27T20:06:27.649Z,100999.66
2022-11-27T20:08:59.791Z,101004.19
2022-11-27T20:11:32.658Z,100996.20
2022-11-27T20:14:01.012Z,100989.96
2022-11-27T20:16:27.768Z,100988.78
2022-11-27T20:18:54.912Z,100991.25
2022-11-27T20:21:23.800Z,100986.42
2022-11-27T20:23:51.831Z,100990.36
2022-11-27T20:26:21.974Z,100986.58
2022-11-27T20:28:49.871Z,100983.35
2022-11-27T20:31:23.966Z,100982.05
2022-11-27T20:33:52.799Z,100982.95
2022-11-27T20:36:20.946Z,100976.92
2022-11-27T20:38:47.600Z,100981.23
2022-11-27T20:41:16.960Z,100980.59
2022-11-27T20:43:43.801Z,100976.63
2022-11-27T20:46:16.005Z,100980.87
2022-11-27T20:48:46.136Z,100973.29
2022-11-27T20:51:15.448Z,100976.80
2022-11-27T20:53:43.737Z,100971.28
2022-11-27T20:56:12.091Z,100969.38
2022-11-27T20:58:40.199Z,100969.17
2022-11-27T21:01:17.479Z,100972.88
2022-11-27T21:03:46.143Z,100962.36
2022-11-27T21:06:13.850Z,100965.77
2022-11-27T21:08:40.567Z,100965.44
2022-11-27T21:11:08.948Z,100959.33
2022-11-27T21:13:35.514Z,100958.98
2022-11-27T21:16:01.903Z,100956.99
2022-11-27T21:18:37.137Z,100956.33
2022-11-27T21:21:12.802Z,100954.33
2022-11-27T21:23:40.739Z,100948.56
2022-11-27T21:26:08.317Z,100946.66
2022-11-27T21:28:34.998Z,100942.08
2022-11-27T21:31:19.610Z,100936.52
2022-11-27T21:33:52.107Z,100933.60
2022-11-27T21:36:20.245Z,100931.90
2022-11-27T21:38:47.267Z,100932.02
2022-11-27T21:41:13.984Z,100928.00
2022-11-27T21:43:41.335Z,100929.27
2022-11-27T21:46:09.956Z,100924.84
2022-11-27T21:48:36.576Z,100921.61
2022-11-27T21:51:04.975Z,100920.52
2022-11-27T21:53:32.464Z,100911.92
2022-11-27T21:56:02.989Z,100914.21
2022-11-27T21:58:34.063Z,100917.48
2022-11-27T22:01:06.139Z,100912.55
2022-11-27T22:03:33.172Z,100911.55
2022-11-27T22:06:07.685Z,100909.94
2022-11-27T22:08:35.985Z,100902.56
2022-11-27T22:11:07.337Z,100904.05
2022-11-27T22:13:34.372Z,100906.66
2022-11-27T22:16:01.280Z,100908.88
2022-11-27T22:18:27.711Z,100903.77
2022-11-27T22:20:54.576Z,100896.90
2022-11-27T22:23:21.035Z,100888.11
2022-11-27T22:25:47.534Z,100893.66
2022-11-27T22:28:13.925Z,100900.21
2022-11-27T22:30:40.379Z,100891.20
2022-11-27T22:33:06.854Z,100889.86
2022-11-27T22:35:33.225Z,100887.29
2022-11-27T22:37:59.631Z,100885.90
2022-11-27T22:40:26.109Z,100884.46
2022-11-27T22:42:52.524Z,100883.86
2022-11-27T22:45:18.968Z,100877.05
2022-11-27T22:47:45.576Z,100882.55
2022-11-27T22:50:12.048Z,100880.15
2022-11-27T22:52:38.980Z,100869.71
2022-11-27T22:55:06.065Z,100869.38
2022-11-27T22:57:34.129Z,100868.27
2022-11-27T23:00:00.559Z,100867.38
2022-11-27T23:02:27.126Z,100870.64
2022-11-27T23:04:53.517Z,100872.49
2022-11-27T23:07:24.803Z,100867.92
2022-11-27T23:09:51.836Z,100868.54
2022-11-27T23:12:18.434Z,100860.58
2022-11-27T23:14:44.968Z,100854.99
2022-11-27T23:17:12.010Z,100851.86
2022-11-27T23:19:38.498Z,100843.46
2022-11-27T23:22:04.909Z,100842.54
2022-11-27T23:24:31.643Z,100836.63
2022-11-27T23:26:58.072Z,100835.34
2022-11-27T23:29:24.499Z,100835.14
2022-11-27T23:31:51.060Z,100838.41
2022-11-27T23:34:17.675Z,100835.30
2022-11-27T23:36:44.543Z,100830.61
2022-11-27T23:39:12.712Z,100825.10
2022-11-27T23:41:40.469Z,100821.58
2022-11-27T23:44:07.465Z,100811.77
2022-11-27T23:46:33.915Z,100802.19
2022-11-27T23:49:00.587Z,100789.90
2022-11-27T23:51:30.280Z,100782.92
2022-11-27T23:53:57.673Z,100776.95
2022-11-27T23:56:26.853Z,100766.11
2022-11-27T23:58:57.064Z,100761.05
